Time;durP1;ratioP1;P1;durP2;ratioP2;P2;SDS_P1;SDS_P2;PMS_P1;PMS_P2;Temp;Humidity;BMP_temperature;BMP_pressure;BME280_temperature;BME280_humidity;BME280_pressure;Samples;Min_cycle;Max_cycle;Signal;HPM_P1;HPM_P2
2023/06/14 00:00:15;;;;;;;6.13;4.80;;;;;;;17.29;39.35;100838.75;843659;23;1334;-78
2023/06/14 00:00:36;;;;;;;7.75;5.00;;;;;;;17.20;39.58;100829.06;839625;23;1184;-77
2023/06/14 00:00:57;;;;;;;7.72;5.10;;;;;;;17.21;39.45;100833.47;843569;23;1230;-78
2023/06/14 00:01:20;;;;;;;8.63;5.32;;;;;;;17.24;39.49;100831.75;843632;23;1150;-77
2023/06/14 00:01:40;;;;;;;7.43;4.93;;;;;;;17.22;39.51;100836.09;845477;23;816;-77
2023/06/14 00:02:01;;;;;;;7.93;4.70;;;;;;;17.24;39.25;100831.75;841243;23;1233;-77
2023/06/14 00:02:22;;;;;;;9.23;4.40;;;;;;;17.31;39.47;100844.91;837325;23;1013;-77
2023/06/14 00:02:42;;;;;;;9.75;4.50;;;;;;;17.31;39.47;100839.63;834685;23;1266;-78
2023/06/14 00:03:03;;;;;;;10.88;4.70;;;;;;;17.32;39.28;100836.16;837163;23;970;-77
2023/06/14 00:03:24;;;;;;;8.00;4.80;;;;;;;17.29;39.54;100836.13;839861;23;1022;-77
2023/06/14 00:03:45;;;;;;;7.28;4.80;;;;;;;17.23;39.42;100822.03;841636;23;721;-77
2023/06/14 00:04:08;;;;;;;6.95;4.82;;;;;;;17.24;39.43;100834.38;837201;23;921;-77
2023/06/14 00:04:29;;;;;;;8.30;5.03;;;;;;;17.28;39.46;100840.53;841337;23;958;-78
2023/06/14 00:04:52;;;;;;;8.57;4.70;;;;;;;17.28;39.62;100839.66;837577;23;823;-78
2023/06/14 00:05:13;;;;;;;8.02;4.97;;;;;;;17.26;39.43;100839.63;839393;23;1326;-77
2023/06/14 00:05:38;;;;;;;8.98;4.68;;;;;;;17.30;39.23;100848.44;839747;23;1216;-77
2023/06/14 00:06:00;;;;;;;8.35;4.40;;;;;;;17.28;39.36;100837.91;839800;23;1367;-77
2023/06/14 00:06:21;;;;;;;7.95;4.32;;;;;;;17.24;39.40;100837.00;835579;23;1155;-77
2023/06/14 00:06:41;;;;;;;6.85;4.50;;;;;;;17.29;39.27;100841.41;837273;23;824;-79
2023/06/14 00:07:02;;;;;;;6.43;4.30;;;;;;;17.26;39.46;100829.97;834963;23;1960;-77
2023/06/14 00:07:38;;;;;;;6.73;4.50;;;;;;;17.31;39.39;100848.44;835288;23;1257;-77
2023/06/14 00:08:00;;;;;;;7.18;4.60;;;;;;;17.30;39.32;100843.16;841312;23;791;-78
2023/06/14 00:08:22;;;;;;;7.78;4.55;;;;;;;17.25;39.39;100840.50;839609;23;1359;-77
2023/06/14 00:08:43;;;;;;;7.03;4.50;;;;;;;17.23;39.36;100832.59;845403;23;895;-78
2023/06/14 00:09:05;;;;;;;5.72;4.47;;;;;;;17.22;39.32;100838.75;840982;23;1068;-77
2023/06/14 00:09:25;;;;;;;5.57;4.57;;;;;;;17.20;39.39;100837.84;837247;23;950;-78
2023/06/14 00:09:46;;;;;;;5.60;4.50;;;;;;;17.21;39.51;100842.25;841466;23;744;-77
2023/06/14 00:10:07;;;;;;;6.22;4.63;;;;;;;17.23;39.14;100843.13;833174;23;1041;-78
2023/06/14 00:10:30;;;;;;;8.50;4.93;;;;;;;17.20;39.19;100836.97;839674;23;1278;-79
2023/06/14 00:10:51;;;;;;;8.32;4.90;;;;;;;17.21;39.18;100838.72;839996;23;1194;-80
2023/06/14 00:11:12;;;;;;;7.72;4.72;;;;;;;17.17;39.16;100827.31;841211;23;1170;-79
2023/06/14 00:11:33;;;;;;;8.70;4.40;;;;;;;17.20;39.18;100836.97;835938;23;1084;-80
2023/06/14 00:11:54;;;;;;;11.15;4.53;;;;;;;17.17;39.26;100840.50;837560;23;808;-80
2023/06/14 00:12:15;;;;;;;10.60;4.55;;;;;;;17.22;39.24;100844.03;837083;23;1071;-79
2023/06/14 00:12:36;;;;;;;9.00;4.50;;;;;;;17.18;39.18;100844.88;837248;23;1101;-79
2023/06/14 00:12:56;;;;;;;6.75;4.60;;;;;;;17.14;39.43;100835.19;841543;23;803;-80
2023/06/14 00:13:17;;;;;;;6.60;4.50;;;;;;;17.18;39.31;100836.97;835878;23;1014;-77
2023/06/14 00:13:38;;;;;;;5.88;4.40;;;;;;;17.17;39.30;100843.13;837428;23;765;-77
2023/06/14 00:13:58;;;;;;;5.68;4.15;;;;;;;17.19;39.42;100851.91;840048;23;1138;-78
2023/06/14 00:14:19;;;;;;;5.40;4.10;;;;;;;17.15;39.39;100842.22;845044;23;1076;-78
2023/06/14 00:14:40;;;;;;;5.63;4.30;;;;;;;17.11;39.36;100837.84;841318;23;919;-80
2023/06/14 00:15:02;;;;;;;6.65;4.53;;;;;;;17.14;39.53;100843.09;839917;23;1460;-77
2023/06/14 00:15:23;;;;;;;7.63;4.70;;;;;;;17.09;39.41;100840.47;845175;23;956;-80
2023/06/14 00:15:44;;;;;;;7.53;4.60;;;;;;;17.14;39.28;100840.47;839946;23;1424;-80
2023/06/14 00:16:05;;;;;;;7.03;4.40;;;;;;;17.12;39.48;100845.75;839596;23;1212;-77
2023/06/14 00:16:26;;;;;;;6.28;4.28;;;;;;;17.08;39.34;100849.25;831824;23;1322;-77
2023/06/14 00:16:47;;;;;;;5.50;4.10;;;;;;;17.09;39.38;100844.88;836852;23;755;-77
2023/06/14 00:17:08;;;;;;;5.40;3.95;;;;;;;17.05;39.40;100841.34;835733;23;1480;-77
2023/06/14 00:17:30;;;;;;;5.22;4.10;;;;;;;17.12;39.18;100850.13;837283;23;1010;-79
2023/06/14 00:17:51;;;;;;;6.43;4.22;;;;;;;17.07;39.38;100836.94;832058;23;1182;-79
2023/06/14 00:18:12;;;;;;;6.80;4.43;;;;;;;17.13;39.14;100847.50;837239;23;1074;-79
2023/06/14 00:18:33;;;;;;;7.20;4.70;;;;;;;17.14;39.45;100851.00;835670;23;1095;-79
2023/06/14 00:18:54;;;;;;;5.82;4.70;;;;;;;17.15;39.17;100850.13;832183;23;1329;-79
2023/06/14 00:19:15;;;;;;;5.75;4.40;;;;;;;17.15;38.90;100855.41;835687;23;1360;-79
2023/06/14 00:19:36;;;;;;;6.10;4.10;;;;;;;17.09;39.09;100848.38;839052;23;1267;-79
2023/06/14 00:20:00;;;;;;;6.55;4.13;;;;;;;17.12;39.34;100855.41;839518;23;1377;-78
2023/06/14 00:20:21;;;;;;;7.28;4.30;;;;;;;17.07;39.16;100836.06;838629;23;1207;-76
2023/06/14 00:20:42;;;;;;;7.72;4.40;;;;;;;17.11;39.38;100845.75;835983;23;1240;-77
2023/06/14 00:21:03;;;;;;;7.78;4.70;;;;;;;17.04;39.23;100838.69;838970;23;1218;-77
2023/06/14 00:21:24;;;;;;;8.18;4.80;;;;;;;17.12;39.16;100856.31;845244;23;934;-78
2023/06/14 00:21:45;;;;;;;9.00;4.50;;;;;;;17.07;39.16;100844.84;844036;23;1262;-77
2023/06/14 00:22:06;;;;;;;7.75;4.30;;;;;;;17.11;39.33;100854.50;841195;23;1014;-77
2023/06/14 00:22:28;;;;;;;7.35;4.25;;;;;;;17.11;39.15;100851.00;837293;23;1013;-78
2023/06/14 00:22:49;;;;;;;6.68;4.35;;;;;;;17.03;39.40;100840.44;841383;23;807;-78
2023/06/14 00:23:10;;;;;;;6.65;4.40;;;;;;;17.10;39.48;100849.25;835681;23;984;-77
2023/06/14 00:23:30;;;;;;;6.63;4.60;;;;;;;17.11;39.21;100851.88;835776;23;892;-78
2023/06/14 00:23:51;;;;;;;6.80;4.75;;;;;;;17.03;39.09;100843.06;837388;23;791;-77
2023/06/14 00:24:12;;;;;;;6.77;4.80;;;;;;;17.06;39.44;100848.38;838758;23;1222;-77
2023/06/14 00:24:32;;;;;;;6.93;4.78;;;;;;;17.09;39.48;100850.13;839737;23;1149;-77
2023/06/14 00:24:53;;;;;;;6.18;4.63;;;;;;;17.07;39.48;100851.88;835897;23;1254;-78
2023/06/14 00:25:14;;;;;;;6.20;4.35;;;;;;;17.07;39.41;100850.13;837181;23;974;-78
2023/06/14 00:25:35;;;;;;;6.00;4.27;;;;;;;17.04;39.46;100851.88;841219;23;1108;-77
2023/06/14 00:25:55;;;;;;;6.03;4.20;;;;;;;17.01;39.42;100846.59;841459;23;732;-78
2023/06/14 00:26:16;;;;;;;7.10;4.40;;;;;;;17.00;39.38;100845.72;839677;23;1239;-78
2023/06/14 00:26:38;;;;;;;6.45;4.22;;;;;;;16.98;39.33;100843.06;849505;23;774;-77
2023/06/14 00:26:59;;;;;;;5.85;4.10;;;;;;;17.02;39.45;100853.63;836747;23;1911;-77
2023/06/14 00:27:20;;;;;;;7.70;4.20;;;;;;;17.01;39.49;100850.09;836978;23;1150;-78
2023/06/14 00:27:41;;;;;;;7.80;4.10;;;;;;;17.03;39.20;100847.47;839847;23;1295;-78
2023/06/14 00:28:01;;;;;;;7.30;4.23;;;;;;;17.05;39.37;100848.34;841305;23;1066;-78
2023/06/14 00:28:22;;;;;;;5.32;4.13;;;;;;;16.96;39.36;100844.81;839714;23;1489;-78
2023/06/14 00:28:43;;;;;;;5.50;4.20;;;;;;;17.04;39.38;100850.13;843126;23;1100;-78
2023/06/14 00:29:03;;;;;;;5.10;4.00;;;;;;;16.97;39.57;100841.31;849101;23;1121;-78
2023/06/14 00:29:25;;;;;;;8.05;4.10;;;;;;;17.02;39.30;100851.00;843427;23;1132;-78
2023/06/14 00:29:45;;;;;;;7.90;4.10;;;;;;;16.99;39.17;100844.81;839938;23;1121;-78
2023/06/14 00:30:07;;;;;;;7.40;4.10;;;;;;;16.98;39.41;100853.59;830863;23;1164;-77
2023/06/14 00:30:30;;;;;;;5.70;4.05;;;;;;;16.98;39.32;100856.25;838608;23;1355;-77
2023/06/14 00:30:51;;;;;;;5.93;4.00;;;;;;;16.93;39.56;100836.91;845594;23;850;-78
2023/06/14 00:31:12;;;;;;;6.37;4.30;;;;;;;16.92;39.30;100845.72;837131;23;1034;-78
2023/06/14 00:31:32;;;;;;;5.70;4.30;;;;;;;16.95;39.25;100848.34;841104;23;970;-78
2023/06/14 00:31:53;;;;;;;6.82;4.30;;;;;;;16.92;39.26;100847.44;841288;23;896;-78
2023/06/14 00:32:14;;;;;;;10.10;4.20;;;;;;;16.99;39.47;100850.09;841068;23;992;-77
2023/06/14 00:32:34;;;;;;;10.10;4.23;;;;;;;17.02;39.27;100858.91;835738;23;1015;-78
2023/06/14 00:32:55;;;;;;;7.65;3.92;;;;;;;17.02;39.36;100853.63;841418;23;744;-78
2023/06/14 00:33:16;;;;;;;5.00;3.80;;;;;;;17.02;39.29;100861.53;841030;23;1029;-78
2023/06/14 00:33:38;;;;;;;5.82;4.13;;;;;;;16.95;39.36;100848.34;839832;23;1197;-78
2023/06/14 00:33:59;;;;;;;5.60;4.20;;;;;;;16.99;39.61;100858.00;841412;23;798;-78
2023/06/14 00:34:20;;;;;;;6.70;4.22;;;;;;;16.92;39.46;100848.34;841041;23;1100;-78
2023/06/14 00:34:40;;;;;;;7.13;4.03;;;;;;;16.93;39.42;100854.47;845280;23;865;-78
2023/06/14 00:35:02;;;;;;;7.45;4.03;;;;;;;16.95;39.59;100856.25;835750;23;1154;-78
2023/06/14 00:35:23;;;;;;;5.82;4.10;;;;;;;16.93;39.58;100854.47;831758;23;1345;-78
2023/06/14 00:35:44;;;;;;;6.53;4.30;;;;;;;16.99;39.14;100863.28;841424;23;780;-77
2023/06/14 00:36:05;;;;;;;8.13;4.28;;;;;;;16.93;39.30;100855.38;837111;23;1061;-77
2023/06/14 00:36:26;;;;;;;9.55;4.47;;;;;;;16.95;39.55;100863.25;839408;23;1307;-78
2023/06/14 00:36:46;;;;;;;9.15;4.40;;;;;;;16.91;39.41;100862.38;839435;23;1025;-78
2023/06/14 00:37:08;;;;;;;8.07;4.60;;;;;;;16.88;39.40;100848.31;838939;23;1327;-78
2023/06/14 00:37:29;;;;;;;7.05;4.47;;;;;;;16.88;39.46;100854.47;837232;23;979;-77
2023/06/14 00:37:50;;;;;;;7.97;4.70;;;;;;;16.88;39.58;100851.84;836061;23;1240;-77
2023/06/14 00:38:11;;;;;;;8.52;4.70;;;;;;;16.85;39.47;100857.97;838391;23;1251;-77
2023/06/14 00:38:31;;;;;;;8.23;4.57;;;;;;;16.91;39.79;100867.66;831838;23;1224;-78
2023/06/14 00:38:52;;;;;;;12.13;4.60;;;;;;;16.84;39.62;100852.72;831995;23;1175;-78
2023/06/14 00:39:13;;;;;;;11.80;4.50;;;;;;;16.84;39.52;100855.34;830825;23;1302;-78
2023/06/14 00:39:35;;;;;;;11.00;4.30;;;;;;;16.82;39.62;100855.34;833284;23;1172;-77
2023/06/14 00:39:55;;;;;;;6.20;4.10;;;;;;;16.77;39.73;100851.78;833509;23;775;-78
2023/06/14 00:40:16;;;;;;;7.73;4.13;;;;;;;16.88;39.73;100878.19;835578;23;979;-77
2023/06/14 00:40:39;;;;;;;8.50;4.20;;;;;;;16.78;39.47;100853.56;835669;23;1212;-78
2023/06/14 00:41:00;;;;;;;8.40;4.10;;;;;;;16.79;39.63;100851.81;841338;23;879;-78
2023/06/14 00:41:20;;;;;;;5.30;4.05;;;;;;;16.76;39.48;100855.31;839537;23;985;-77
2023/06/14 00:41:41;;;;;;;5.60;4.30;;;;;;;16.87;39.65;100873.78;837191;23;773;-77
2023/06/14 00:42:02;;;;;;;5.90;4.50;;;;;;;16.78;39.73;100852.69;839754;23;1167;-78
2023/06/14 00:42:26;;;;;;;6.40;4.38;;;;;;;16.78;39.67;100857.97;845175;23;1099;-78
2023/06/14 00:42:47;;;;;;;8.18;4.38;;;;;;;16.77;39.61;100858.84;835927;23;1465;-78
2023/06/14 00:43:08;;;;;;;7.80;4.30;;;;;;;16.77;39.68;100864.97;842724;23;1262;-78
2023/06/14 00:43:29;;;;;;;7.45;4.50;;;;;;;16.81;39.69;100865.88;845279;23;987;-78
2023/06/14 00:43:51;;;;;;;6.40;4.50;;;;;;;16.79;39.78;100865.00;839763;23;1057;-77
2023/06/14 00:44:16;;;;;;;6.78;4.55;;;;;;;16.80;39.38;100864.09;835669;23;1118;-77
2023/06/14 00:44:37;;;;;;;7.20;4.35;;;;;;;16.78;39.75;100865.88;835792;23;1165;-78
2023/06/14 00:44:58;;;;;;;8.02;4.22;;;;;;;16.81;39.66;100871.13;831342;23;1324;-78
2023/06/14 00:45:19;;;;;;;8.20;4.22;;;;;;;16.70;39.74;100853.53;831649;23;1106;-78
2023/06/14 00:45:41;;;;;;;6.93;3.97;;;;;;;16.75;39.66;100857.94;839476;23;944;-78
2023/06/14 00:46:02;;;;;;;4.73;3.53;;;;;;;16.70;39.63;100858.81;841259;23;991;-78
2023/06/14 00:46:24;;;;;;;6.20;3.90;;;;;;;16.69;39.72;100851.78;845099;23;1345;-78
2023/06/14 00:46:48;;;;;;;7.20;3.90;;;;;;;16.66;39.72;100849.13;839348;23;1250;-78
2023/06/14 00:47:09;;;;;;;7.43;4.00;;;;;;;16.70;39.79;100861.44;843750;23;1961;-77
2023/06/14 00:47:29;;;;;;;5.50;3.90;;;;;;;16.66;39.91;100854.38;843787;23;984;-78
2023/06/14 00:47:55;;;;;;;5.60;3.92;;;;;;;16.67;39.89;100863.19;844108;23;1384;-78
2023/06/14 00:48:15;;;;;;;6.20;4.10;;;;;;;16.66;40.04;100864.91;831762;23;1171;-79
2023/06/14 00:48:39;;;;;;;6.45;4.07;;;;;;;16.71;39.88;100871.09;835830;23;1318;-78
2023/06/14 00:49:01;;;;;;;7.00;4.30;;;;;;;16.67;39.89;100877.22;841266;23;854;-78
2023/06/14 00:49:22;;;;;;;6.45;4.10;;;;;;;16.66;39.91;100870.19;839279;23;1471;-78
2023/06/14 00:49:48;;;;;;;7.07;4.00;;;;;;;16.67;39.93;100869.31;841295;23;862;-78
2023/06/14 00:50:09;;;;;;;7.88;3.83;;;;;;;16.67;40.01;100861.41;839211;23;1908;-78
2023/06/14 00:50:32;;;;;;;6.70;4.10;;;;;;;16.68;39.86;100876.38;837157;23;1019;-77
2023/06/14 00:50:54;;;;;;;6.20;4.28;;;;;;;16.69;39.97;100875.50;833408;23;826;-78
2023/06/14 00:51:15;;;;;;;6.10;4.45;;;;;;;16.66;39.99;100866.69;839574;23;1213;-77
2023/06/14 00:51:37;;;;;;;6.40;4.40;;;;;;;16.61;40.04;100866.69;839677;23;1105;-78
2023/06/14 00:51:58;;;;;;;5.68;4.03;;;;;;;16.68;40.28;100870.22;839035;23;1293;-77
2023/06/14 00:52:19;;;;;;;5.23;4.00;;;;;;;16.65;39.90;100871.06;843483;23;1182;-77
2023/06/14 00:52:40;;;;;;;4.63;3.70;;;;;;;16.67;39.98;100885.13;849364;23;786;-78
2023/06/14 00:53:01;;;;;;;5.10;3.83;;;;;;;16.65;40.22;100868.44;849448;23;767;-77
2023/06/14 00:53:22;;;;;;;8.45;4.00;;;;;;;16.61;40.05;100864.03;839693;23;1818;-78
2023/06/14 00:53:46;;;;;;;9.10;4.10;;;;;;;16.62;40.08;100871.06;837517;23;858;-78
2023/06/14 00:54:08;;;;;;;9.45;4.15;;;;;;;16.62;40.11;100870.19;838446;23;1174;-78
2023/06/14 00:54:29;;;;;;;7.45;4.43;;;;;;;16.64;40.26;100877.22;838984;23;1241;-78
2023/06/14 00:54:50;;;;;;;7.68;4.68;;;;;;;16.59;40.07;100871.03;840031;23;1064;-78
2023/06/14 00:55:11;;;;;;;8.07;4.90;;;;;;;16.55;40.09;100853.47;834774;23;1204;-78
2023/06/14 00:55:32;;;;;;;8.45;4.40;;;;;;;16.57;40.09;100860.50;835734;23;1293;-78
2023/06/14 00:55:53;;;;;;;8.65;4.40;;;;;;;16.60;39.97;100867.56;839966;23;1230;-79
2023/06/14 00:56:14;;;;;;;7.78;4.28;;;;;;;16.58;40.18;100864.00;841119;23;1023;-78
2023/06/14 00:56:36;;;;;;;7.70;4.20;;;;;;;16.62;40.21;100876.34;835706;23;1180;-79
2023/06/14 00:56:58;;;;;;;8.77;4.30;;;;;;;16.60;40.01;100872.81;838581;23;1193;-78
2023/06/14 00:57:20;;;;;;;8.55;4.30;;;;;;;16.56;40.13;100865.75;836988;23;1097;-78
2023/06/14 00:57:41;;;;;;;7.20;4.50;;;;;;;16.55;40.25;100867.50;833365;23;827;-78
2023/06/14 00:58:02;;;;;;;6.13;4.50;;;;;;;16.58;40.25;100879.81;837093;23;1141;-77
2023/06/14 00:58:23;;;;;;;7.60;4.50;;;;;;;16.53;40.21;100863.13;839585;23;1359;-78
2023/06/14 00:58:44;;;;;;;7.25;4.15;;;;;;;16.50;40.26;100860.47;837373;23;964;-78
2023/06/14 00:59:05;;;;;;;7.65;4.20;;;;;;;16.44;40.13;100851.69;835399;23;1154;-78
2023/06/14 00:59:26;;;;;;;5.82;3.85;;;;;;;16.53;40.25;100877.16;836901;23;970;-78
2023/06/14 00:59:49;;;;;;;6.03;3.53;;;;;;;16.50;40.22;100868.38;837415;23;745;-78
2023/06/14 01:00:11;;;;;;;7.25;3.60;;;;;;;16.53;40.28;100871.03;834759;23;1205;-79
2023/06/14 01:00:32;;;;;;;7.03;4.00;;;;;;;16.49;40.36;100864.88;839603;23;1114;-78
2023/06/14 01:00:54;;;;;;;6.97;4.00;;;;;;;16.51;40.66;100873.66;839945;23;1079;-78
2023/06/14 01:01:14;;;;;;;6.25;4.10;;;;;;;16.48;40.19;100868.38;837070;23;1085;-78
2023/06/14 01:01:36;;;;;;;5.65;3.90;;;;;;;16.46;40.44;100863.97;835657;23;1142;-78
2023/06/14 01:01:57;;;;;;;6.47;4.18;;;;;;;16.42;40.41;100861.31;843067;23;1357;-78
2023/06/14 01:02:18;;;;;;;5.70;3.80;;;;;;;16.44;40.33;100867.47;848996;23;1015;-78
2023/06/14 01:02:39;;;;;;;5.57;4.03;;;;;;;16.42;40.23;100863.94;845330;23;799;-78
2023/06/14 01:03:01;;;;;;;5.28;3.90;;;;;;;16.47;40.19;100871.00;843859;23;1329;-78
2023/06/14 01:03:22;;;;;;;6.40;4.20;;;;;;;16.43;40.37;100868.31;843661;23;1137;-77
2023/06/14 01:03:43;;;;;;;6.15;4.20;;;;;;;16.42;40.43;100871.84;849654;23;798;-77
2023/06/14 01:04:05;;;;;;;5.47;4.03;;;;;;;16.44;40.51;100878.00;843704;23;1201;-77
2023/06/14 01:04:25;;;;;;;5.65;4.10;;;;;;;16.45;40.59;100881.50;835468;23;1231;-78
2023/06/14 01:04:48;;;;;;;6.85;4.18;;;;;;;16.38;40.43;100864.81;839640;23;1366;-78
2023/06/14 01:05:10;;;;;;;6.82;4.15;;;;;;;16.39;40.56;100876.22;839673;23;1250;-78
2023/06/14 01:05:35;;;;;;;5.55;4.18;;;;;;;16.41;40.70;100885.03;837306;23;1072;-78
2023/06/14 01:06:15;;;;;;;5.82;4.32;;;;;;;16.33;40.52;100877.06;837508;23;858;-79
2023/06/14 01:07:09;;;;;;;7.50;4.38;;;;;;;16.37;40.54;100886.75;841065;23;910;-78
2023/06/14 01:07:36;;;;;;;7.00;4.03;;;;;;;16.36;40.79;100885.00;843652;23;1140;-78
2023/06/14 01:08:29;;;;;;;6.07;4.20;;;;;;;16.37;40.82;100885.84;836975;23;823;-78
2023/06/14 01:09:13;;;;;;;6.47;3.90;;;;;;;16.25;40.79;100876.13;831319;23;1308;-78
2023/06/14 01:09:49;;;;;;;6.25;4.10;;;;;;;16.29;40.90;100891.09;838979;23;1216;-78
2023/06/14 01:10:21;;;;;;;6.70;4.20;;;;;;;16.29;41.00;100891.09;847308;23;1202;-79
2023/06/14 01:10:52;;;;;;;6.20;4.07;;;;;;;16.26;40.98;100889.31;840740;23;894;-78
2023/06/14 01:11:22;;;;;;;5.90;4.10;;;;;;;16.22;40.95;100884.84;840218;23;1355;-78
2023/06/14 01:12:07;;;;;;;7.00;4.50;;;;;;;16.25;40.94;100897.19;841391;23;787;-78
2023/06/14 01:12:36;;;;;;;7.93;4.57;;;;;;;16.13;40.90;100872.53;840577;23;1364;-78
2023/06/14 01:13:27;;;;;;;8.10;4.28;;;;;;;16.14;41.08;100882.19;836190;23;1279;-77
2023/06/14 01:13:50;;;;;;;7.25;4.32;;;;;;;16.21;40.90;100892.75;839379;23;1248;-78
2023/06/14 01:14:13;;;;;;;6.20;4.40;;;;;;;16.14;41.15;100882.19;837144;23;1040;-79
2023/06/14 01:14:35;;;;;;;6.30;4.38;;;;;;;16.19;41.27;100887.47;837158;23;887;-78
2023/06/14 01:14:57;;;;;;;5.85;4.07;;;;;;;16.14;41.20;100876.03;841315;23;851;-78
2023/06/14 01:15:20;;;;;;;5.22;4.00;;;;;;;16.13;41.05;100890.97;839614;23;1462;-78
2023/06/14 01:15:43;;;;;;;5.72;4.00;;;;;;;16.06;41.05;100875.09;835916;23;1853;-78
2023/06/14 01:16:05;;;;;;;6.60;4.00;;;;;;;16.14;41.07;100891.81;835580;23;1271;-78
2023/06/14 01:16:39;;;;;;;7.65;3.70;;;;;;;16.10;41.05;100883.03;839283;23;1279;-78
2023/06/14 01:17:02;;;;;;;6.45;3.80;;;;;;;16.07;41.31;100876.84;839182;23;815;-78
2023/06/14 01:17:25;;;;;;;4.90;4.03;;;;;;;16.07;41.11;100883.00;841086;23;822;-78
2023/06/14 01:17:51;;;;;;;5.57;4.40;;;;;;;16.08;41.21;100887.41;838463;23;1174;-78
2023/06/14 01:18:17;;;;;;;7.32;4.53;;;;;;;16.10;41.23;100888.28;839466;23;1224;-78
2023/06/14 01:18:38;;;;;;;7.65;4.43;;;;;;;16.09;41.23;100886.53;841112;23;1090;-78
2023/06/14 01:18:59;;;;;;;7.63;4.13;;;;;;;16.09;41.25;100891.78;841250;23;807;-78
2023/06/14 01:19:25;;;;;;;7.00;3.90;;;;;;;16.04;41.38;100877.72;839294;23;1271;-78
2023/06/14 01:19:46;;;;;;;6.30;3.85;;;;;;;16.08;41.60;100892.66;848001;23;788;-78
2023/06/14 01:20:12;;;;;;;5.28;3.75;;;;;;;16.07;41.37;100883.00;849231;23;1055;-78
2023/06/14 01:20:36;;;;;;;5.85;4.18;;;;;;;16.07;41.36;100887.38;843843;23;1199;-79
2023/06/14 01:20:58;;;;;;;6.10;4.43;;;;;;;16.02;41.35;100882.09;841376;23;755;-78
2023/06/14 01:21:23;;;;;;;8.38;4.25;;;;;;;16.11;41.74;100894.44;847706;23;1361;-78
2023/06/14 01:21:44;;;;;;;9.30;4.20;;;;;;;16.02;41.44;100884.72;839542;23;1286;-78
2023/06/14 01:22:05;;;;;;;9.70;4.20;;;;;;;16.00;41.61;100873.31;839527;23;1154;-78
2023/06/14 01:22:27;;;;;;;7.22;4.30;;;;;;;16.09;41.40;100893.56;839778;23;1344;-77
2023/06/14 01:22:53;;;;;;;7.00;4.20;;;;;;;15.99;41.36;100882.06;839959;23;1310;-78
2023/06/14 01:23:19;;;;;;;6.80;4.00;;;;;;;16.07;41.47;100892.66;839665;23;1246;-78
2023/06/14 01:23:39;;;;;;;7.07;4.10;;;;;;;15.98;41.63;100880.31;838955;23;914;-78
2023/06/14 01:24:03;;;;;;;5.60;4.10;;;;;;;16.04;41.41;100896.13;841306;23;871;-78
2023/06/14 01:24:25;;;;;;;6.18;4.28;;;;;;;15.97;41.67;100887.31;838532;23;1374;-77
2023/06/14 01:24:46;;;;;;;6.30;4.10;;;;;;;15.97;41.52;100881.19;841314;23;830;-78
2023/06/14 01:25:07;;;;;;;8.30;4.18;;;;;;;16.02;41.60;100890.88;840933;23;990;-79
2023/06/14 01:25:28;;;;;;;8.85;3.90;;;;;;;15.95;41.52;100882.91;839628;23;1147;-78
2023/06/14 01:25:52;;;;;;;8.10;3.90;;;;;;;16.04;41.51;100893.50;841312;23;856;-78
2023/06/14 01:26:15;;;;;;;6.60;3.90;;;;;;;16.00;41.58;100892.59;839614;23;1337;-79
2023/06/14 01:26:38;;;;;;;6.35;3.97;;;;;;;15.97;41.48;100879.44;843703;23;1032;-77
2023/06/14 01:27:01;;;;;;;7.90;4.28;;;;;;;15.99;41.60;100893.47;843014;23;1942;-78
2023/06/14 01:27:24;;;;;;;7.22;4.20;;;;;;;15.99;41.69;100889.97;843593;23;1407;-77
2023/06/14 01:27:44;;;;;;;6.82;4.20;;;;;;;15.90;41.70;100870.63;842454;23;1867;-78
2023/06/14 01:28:11;;;;;;;7.17;4.30;;;;;;;16.03;41.44;100892.63;839610;23;1228;-78
2023/06/14 01:28:34;;;;;;;7.32;4.20;;;;;;;16.01;41.68;100894.38;845271;23;942;-78
2023/06/14 01:28:58;;;;;;;5.53;3.97;;;;;;;15.93;41.75;100882.91;839941;23;1355;-78
2023/06/14 01:29:18;;;;;;;6.35;4.00;;;;;;;16.04;41.58;100896.13;839511;23;1124;-78
2023/06/14 01:29:45;;;;;;;7.63;4.20;;;;;;;16.03;41.72;100897.00;847976;23;1358;-79
2023/06/14 01:30:11;;;;;;;7.50;4.35;;;;;;;15.98;41.55;100888.22;845155;23;1087;-78
2023/06/14 01:30:33;;;;;;;5.80;4.00;;;;;;;15.99;41.67;100884.72;838185;23;935;-78
2023/06/14 01:30:54;;;;;;;5.68;4.10;;;;;;;15.96;41.67;100884.66;845467;23;806;-78
2023/06/14 01:31:23;;;;;;;6.63;4.18;;;;;;;15.97;41.31;100875.94;841270;23;974;-78
2023/06/14 01:31:45;;;;;;;7.50;4.13;;;;;;;16.02;41.54;100892.63;840419;23;960;-78
2023/06/14 01:32:07;;;;;;;6.00;4.00;;;;;;;16.00;41.57;100891.72;841021;23;1131;-78
2023/06/14 01:32:29;;;;;;;6.97;3.85;;;;;;;15.97;41.57;100889.09;844075;23;1012;-78
2023/06/14 01:32:51;;;;;;;6.20;3.80;;;;;;;15.96;41.71;100885.56;843849;23;1340;-78
2023/06/14 01:33:14;;;;;;;7.35;3.90;;;;;;;16.06;41.69;100906.69;838536;23;1029;-78
2023/06/14 01:33:36;;;;;;;7.30;4.35;;;;;;;15.97;41.45;100891.72;841047;23;982;-79
2023/06/14 01:33:57;;;;;;;9.93;4.38;;;;;;;15.96;41.71;100889.94;835897;23;1249;-78
2023/06/14 01:34:17;;;;;;;10.20;4.05;;;;;;;15.95;41.77;100882.91;835543;23;1177;-78
2023/06/14 01:34:38;;;;;;;9.68;3.80;;;;;;;15.99;41.65;100900.50;843770;23;1275;-78
2023/06/14 01:34:59;;;;;;;8.02;3.88;;;;;;;15.99;41.77;100900.50;847060;23;1082;-78
2023/06/14 01:35:22;;;;;;;8.20;4.20;;;;;;;15.98;41.69;100893.47;847780;23;983;-78
2023/06/14 01:35:45;;;;;;;8.63;4.60;;;;;;;15.98;41.83;100894.34;839808;23;1355;-78
2023/06/14 01:36:08;;;;;;;6.93;4.80;;;;;;;15.93;41.67;100884.66;835493;23;1186;-78
2023/06/14 01:36:28;;;;;;;8.45;4.90;;;;;;;15.93;41.86;100889.94;837108;23;1079;-79
2023/06/14 01:36:54;;;;;;;8.55;4.45;;;;;;;15.90;41.69;100881.16;839209;23;1308;-78
2023/06/14 01:37:16;;;;;;;8.00;4.05;;;;;;;15.93;41.85;100893.44;839666;23;1157;-78
2023/06/14 01:37:39;;;;;;;6.90;3.90;;;;;;;15.96;41.81;100900.47;835797;23;1085;-78
2023/06/14 01:38:01;;;;;;;6.38;3.78;;;;;;;15.99;41.68;100903.13;837417;23;815;-78
2023/06/14 01:38:25;;;;;;;6.18;3.92;;;;;;;15.93;41.97;100892.56;841254;23;898;-78
2023/06/14 01:38:49;;;;;;;7.18;4.30;;;;;;;15.96;41.75;100900.47;843910;23;1195;-78
2023/06/14 01:39:14;;;;;;;6.40;4.30;;;;;;;15.94;41.71;100891.69;845115;23;1117;-78
2023/06/14 01:39:34;;;;;;;7.43;4.00;;;;;;;15.90;41.83;100891.66;839495;23;1099;-78
2023/06/14 01:39:55;;;;;;;8.38;4.18;;;;;;;15.91;41.87;100892.53;839949;23;1274;-79
2023/06/14 01:40:18;;;;;;;7.03;4.05;;;;;;;15.89;41.90;100897.81;839749;23;1252;-78
2023/06/14 01:40:39;;;;;;;6.97;4.10;;;;;;;15.97;41.85;100903.13;839787;23;1269;-79
2023/06/14 01:41:02;;;;;;;6.07;4.20;;;;;;;15.90;42.05;100890.78;841371;23;735;-78
2023/06/14 01:41:24;;;;;;;10.55;4.20;;;;;;;15.89;42.01;100891.66;839643;23;1491;-78
2023/06/14 01:41:49;;;;;;;10.45;4.15;;;;;;;15.88;41.87;100892.53;845271;23;806;-78
2023/06/14 01:42:11;;;;;;;9.65;4.07;;;;;;;15.92;41.74;100898.69;846677;23;1299;-78
2023/06/14 01:42:35;;;;;;;5.53;4.22;;;;;;;15.93;41.70;100903.09;849341;23;1016;-78
2023/06/14 01:42:58;;;;;;;6.18;4.13;;;;;;;15.85;42.13;100893.38;839842;23;1108;-78
2023/06/14 01:43:20;;;;;;;5.80;3.90;;;;;;;15.93;42.09;100903.97;843525;23;1341;-79
2023/06/14 01:43:42;;;;;;;4.85;3.90;;;;;;;15.91;42.03;100897.78;845194;23;838;-78
2023/06/14 01:44:04;;;;;;;4.75;4.00;;;;;;;15.92;41.97;100902.19;845014;23;1115;-78
2023/06/14 01:44:29;;;;;;;5.60;4.22;;;;;;;15.87;41.93;100899.53;837176;23;902;-78
2023/06/14 01:44:53;;;;;;;8.43;4.95;;;;;;;15.90;42.06;100903.94;843757;23;1257;-78
2023/06/14 01:45:15;;;;;;;8.45;4.90;;;;;;;15.87;42.17;100896.88;844105;23;1083;-78
2023/06/14 01:45:37;;;;;;;6.85;4.50;;;;;;;15.78;41.96;100886.28;843248;23;972;-78
2023/06/14 01:45:59;;;;;;;6.93;4.30;;;;;;;15.81;42.07;100894.22;845446;23;901;-78
2023/06/14 01:46:23;;;;;;;7.10;4.40;;;;;;;15.85;42.13;100903.03;850792;23;1444;-78
2023/06/14 01:46:45;;;;;;;6.68;4.25;;;;;;;15.87;42.17;100911.81;845300;23;785;-78
2023/06/14 01:47:06;;;;;;;6.28;4.20;;;;;;;15.85;41.87;100903.91;844979;23;1904;-78
2023/06/14 01:47:27;;;;;;;6.15;4.20;;;;;;;15.75;42.24;100887.16;839235;23;1280;-78
2023/06/14 01:47:48;;;;;;;6.18;4.25;;;;;;;15.79;41.94;100895.94;839966;23;1360;-79
2023/06/14 01:48:10;;;;;;;7.50;4.20;;;;;;;15.87;42.18;100906.56;841080;23;1028;-78